Time;durP1;ratioP1;P1;durP2;ratioP2;P2;SDS_P1;SDS_P2;PMS_P1;PMS_P2;Temp;Humidity;BMP_temperature;BMP_pressure;BME280_temperature;BME280_humidity;BME280_pressure;Samples;Min_cycle;Max_cycle;Signal;HPM_P1;HPM_P2
2022/10/04 00:01:37;;;;;;;;;;;23.10;38.20;;;;;;486908;244;1118;-75
2022/10/04 00:03:38;;;;;;;;;;;23.10;38.40;;;;;;486691;245;1444;-75
2022/10/04 00:05:39;;;;;;;;;;;23.10;38.40;;;;;;486839;245;1159;-75
2022/10/04 00:07:40;;;;;;;;;;;23.10;38.30;;;;;;486866;245;1162;-75
2022/10/04 00:09:42;;;;;;;;;;;23.00;38.30;;;;;;486827;245;2206;-75
2022/10/04 00:11:43;;;;;;;;;;;22.90;38.50;;;;;;486869;244;1094;-75
2022/10/04 00:13:44;;;;;;;;;;;23.00;38.50;;;;;;487032;244;1132;-75
2022/10/04 00:15:46;;;;;;;;;;;23.00;38.40;;;;;;486919;245;1086;-75
2022/10/04 00:17:47;;;;;;;;;;;23.00;38.40;;;;;;486946;245;1099;-75
2022/10/04 00:19:48;;;;;;;;;;;22.90;38.40;;;;;;486869;245;1278;-75
2022/10/04 00:21:50;;;;;;;;;;;23.00;38.50;;;;;;486861;245;1129;-74
2022/10/04 00:23:51;;;;;;;;;;;23.00;38.40;;;;;;486843;245;1138;-74
2022/10/04 00:25:52;;;;;;;;;;;23.00;38.40;;;;;;486843;245;1170;-75
2022/10/04 00:27:54;;;;;;;;;;;22.90;38.40;;;;;;486934;244;1028;-75
2022/10/04 00:29:55;;;;;;;;;;;23.00;38.40;;;;;;486838;245;2213;-75
2022/10/04 00:31:56;;;;;;;;;;;23.00;38.30;;;;;;487027;245;1160;-75
2022/10/04 00:33:58;;;;;;;;;;;23.10;38.20;;;;;;486643;245;1073;-75
2022/10/04 00:35:59;;;;;;;;;;;23.00;38.30;;;;;;486928;245;1121;-75
2022/10/04 00:38:00;;;;;;;;;;;23.00;38.30;;;;;;486847;244;1220;-75
2022/10/04 00:40:02;;;;;;;;;;;23.00;38.20;;;;;;486851;245;1246;-75
2022/10/04 00:42:03;;;;;;;;;;;23.10;38.20;;;;;;486914;244;1304;-75
2022/10/04 00:44:04;;;;;;;;;;;23.10;38.10;;;;;;486893;245;1155;-75
2022/10/04 00:46:06;;;;;;;;;;;23.10;38.10;;;;;;486875;245;1222;-75
2022/10/04 00:48:07;;;;;;;;;;;23.20;38.00;;;;;;486765;245;1184;-75
2022/10/04 00:50:08;;;;;;;;;;;23.20;37.90;;;;;;486897;245;2140;-75
2022/10/04 00:52:10;;;;;;;;;;;23.30;37.80;;;;;;486845;244;1093;-75
2022/10/04 00:54:11;;;;;;;;;;;23.40;37.70;;;;;;486818;245;1309;-75
2022/10/04 00:56:12;;;;;;;;;;;23.40;37.60;;;;;;486857;245;1206;-75
2022/10/04 00:58:15;;;;;;;;;;;23.40;37.40;;;;;;486936;245;1255;-75
2022/10/04 01:00:16;;;;;;;;;;;23.40;37.50;;;;;;486911;245;1189;-75
2022/10/04 01:02:17;;;;;;;;;;;23.50;37.50;;;;;;486749;245;1234;-75
2022/10/04 01:04:18;;;;;;;;;;;23.40;37.40;;;;;;486861;245;1176;-75
2022/10/04 01:06:20;;;;;;;;;;;23.50;37.40;;;;;;486852;245;1175;-75
2022/10/04 01:08:21;;;;;;;;;;;23.40;37.40;;;;;;487071;244;1159;-75
2022/10/04 01:10:22;;;;;;;;;;;23.40;37.30;;;;;;486837;245;2199;-75
2022/10/04 01:12:24;;;;;;;;;;;23.40;37.40;;;;;;486952;244;1186;-75
2022/10/04 01:14:25;;;;;;;;;;;23.30;37.40;;;;;;486921;244;1087;-75
2022/10/04 01:16:27;;;;;;;;;;;23.20;37.60;;;;;;486865;245;1104;-75
2022/10/04 01:18:28;;;;;;;;;;;23.10;37.80;;;;;;486876;245;1078;-75
2022/10/04 01:20:29;;;;;;;;;;;23.10;37.60;;;;;;486876;245;1106;-75
2022/10/04 01:22:31;;;;;;;;;;;23.10;37.80;;;;;;486952;244;1153;-75
2022/10/04 01:24:32;;;;;;;;;;;23.00;37.80;;;;;;486861;245;1075;-75
2022/10/04 01:26:33;;;;;;;;;;;22.90;37.90;;;;;;486878;245;1106;-75
2022/10/04 01:28:35;;;;;;;;;;;22.90;38.00;;;;;;486878;245;1058;-75
2022/10/04 01:30:36;;;;;;;;;;;22.90;38.10;;;;;;486915;244;2210;-75
2022/10/04 01:32:37;;;;;;;;;;;22.90;37.90;;;;;;486735;245;1124;-75
2022/10/04 01:34:39;;;;;;;;;;;22.90;37.90;;;;;;486795;245;1025;-75
2022/10/04 01:36:40;;;;;;;;;;;22.90;37.90;;;;;;486966;244;1210;-75
2022/10/04 01:38:41;;;;;;;;;;;22.90;38.00;;;;;;487076;244;1134;-75
2022/10/04 01:40:43;;;;;;;;;;;22.90;37.90;;;;;;486857;245;1253;-75
2022/10/04 01:42:44;;;;;;;;;;;22.90;37.80;;;;;;487011;245;1159;-75
2022/10/04 01:44:45;;;;;;;;;;;22.90;37.70;;;;;;486854;245;1201;-75
2022/10/04 01:46:47;;;;;;;;;;;22.90;37.70;;;;;;486858;245;1105;-75
2022/10/04 01:48:48;;;;;;;;;;;22.80;37.70;;;;;;486982;245;2178;-75
2022/10/04 01:50:50;;;;;;;;;;;22.80;37.80;;;;;;486905;245;1249;-75
2022/10/04 01:52:51;;;;;;;;;;;22.90;37.70;;;;;;486872;245;1229;-75
2022/10/04 01:54:52;;;;;;;;;;;22.90;37.70;;;;;;486917;244;1095;-75
2022/10/04 01:56:53;;;;;;;;;;;22.90;37.60;;;;;;487032;244;1143;-75
2022/10/04 01:58:56;;;;;;;;;;;22.90;37.60;;;;;;487028;245;1219;-75
2022/10/04 02:00:56;;;;;;;;;;;22.90;37.70;;;;;;486829;245;1451;-75
2022/10/04 02:02:57;;;;;;;;;;;22.90;37.60;;;;;;486617;245;1102;-75
2022/10/04 02:04:59;;;;;;;;;;;22.90;37.50;;;;;;486938;245;1182;-75
2022/10/04 02:07:00;;;;;;;;;;;23.00;37.50;;;;;;486963;244;1185;-75
2022/10/04 02:09:01;;;;;;;;;;;22.90;37.50;;;;;;486861;245;2189;-75
2022/10/04 02:11:03;;;;;;;;;;;22.90;37.50;;;;;;487067;244;1118;-75
2022/10/04 02:13:04;;;;;;;;;;;22.80;37.60;;;;;;486878;245;1238;-75
2022/10/04 02:15:05;;;;;;;;;;;22.80;37.60;;;;;;486872;244;1108;-75
2022/10/04 02:17:09;;;;;;;;;;;22.80;37.40;;;;;;486861;245;1195;-75
2022/10/04 02:19:08;;;;;;;;;;;22.90;37.50;;;;;;486759;245;1496;-75
2022/10/04 02:21:09;;;;;;;;;;;22.90;37.50;;;;;;486829;245;1169;-75
2022/10/04 02:23:11;;;;;;;;;;;22.90;37.40;;;;;;486900;245;1131;-75
2022/10/04 02:25:13;;;;;;;;;;;22.90;37.30;;;;;;486851;245;1199;-75
2022/10/04 02:27:14;;;;;;;;;;;22.90;37.40;;;;;;486838;245;1181;-75
2022/10/04 02:29:15;;;;;;;;;;;22.90;37.40;;;;;;486884;245;2175;-75
2022/10/04 02:33:36;;;;;;;;;;;22.80;37.40;;;;;;486706;245;1167;-75
2022/10/04 02:35:37;;;;;;;;;;;22.90;37.40;;;;;;486979;245;1142;-75
2022/10/04 02:37:39;;;;;;;;;;;22.90;37.30;;;;;;487067;244;1074;-75
2022/10/04 02:39:42;;;;;;;;;;;22.90;37.30;;;;;;486878;245;1392;-75
2022/10/04 02:41:42;;;;;;;;;;;22.90;37.30;;;;;;486730;245;1456;-75
2022/10/04 02:43:44;;;;;;;;;;;22.80;37.30;;;;;;486894;245;1249;-75
2022/10/04 02:45:45;;;;;;;;;;;22.80;37.20;;;;;;486888;244;1333;-75
2022/10/04 02:47:46;;;;;;;;;;;22.80;37.40;;;;;;486836;245;1187;-75
2022/10/04 02:49:48;;;;;;;;;;;22.80;37.40;;;;;;487043;244;2218;-75
2022/10/04 02:51:49;;;;;;;;;;;22.70;37.40;;;;;;486907;245;1099;-75
2022/10/04 02:53:50;;;;;;;;;;;22.70;37.40;;;;;;486860;245;1232;-75
2022/10/04 02:55:52;;;;;;;;;;;22.80;37.40;;;;;;486996;244;1230;-75
2022/10/04 02:57:53;;;;;;;;;;;22.80;37.40;;;;;;486809;245;1218;-75
2022/10/04 02:59:54;;;;;;;;;;;22.80;37.40;;;;;;486827;244;1130;-75
2022/10/04 03:01:56;;;;;;;;;;;22.80;37.40;;;;;;486829;245;1106;-75
2022/10/04 03:03:57;;;;;;;;;;;22.80;37.40;;;;;;486653;245;1180;-75
2022/10/04 03:05:59;;;;;;;;;;;22.80;37.20;;;;;;486869;244;1225;-75
2022/10/04 03:08:00;;;;;;;;;;;22.90;37.30;;;;;;486839;245;1113;-75
2022/10/04 03:10:01;;;;;;;;;;;22.80;37.40;;;;;;486886;244;2159;-75
2022/10/04 03:12:03;;;;;;;;;;;22.80;37.40;;;;;;486903;245;1221;-75
2022/10/04 03:14:05;;;;;;;;;;;22.80;37.40;;;;;;486955;245;1144;-75
2022/10/04 03:16:06;;;;;;;;;;;22.70;37.40;;;;;;486816;245;1195;-75
2022/10/04 03:18:07;;;;;;;;;;;22.80;37.40;;;;;;486831;245;1190;-75
2022/10/04 03:20:10;;;;;;;;;;;22.70;37.40;;;;;;486865;244;1173;-74
2022/10/04 03:22:10;;;;;;;;;;;22.70;37.40;;;;;;486890;244;1237;-74
2022/10/04 03:24:12;;;;;;;;;;;22.80;37.40;;;;;;487015;245;1123;-75
2022/10/04 03:26:13;;;;;;;;;;;22.80;37.40;;;;;;486885;244;1160;-75
2022/10/04 03:28:14;;;;;;;;;;;22.70;37.40;;;;;;486925;245;1148;-75
2022/10/04 03:30:16;;;;;;;;;;;22.70;37.40;;;;;;486809;245;2187;-75
2022/10/04 03:32:17;;;;;;;;;;;22.70;37.30;;;;;;486822;245;1189;-75
2022/10/04 03:34:18;;;;;;;;;;;22.70;37.30;;;;;;486709;245;1172;-74
2022/10/04 03:36:20;;;;;;;;;;;22.70;37.40;;;;;;486934;244;1176;-75
2022/10/04 03:38:21;;;;;;;;;;;22.70;37.40;;;;;;486885;245;1157;-75
2022/10/04 03:40:24;;;;;;;;;;;22.70;37.40;;;;;;486869;245;1165;-75
2022/10/04 03:42:24;;;;;;;;;;;22.60;37.30;;;;;;486893;245;1440;-75
2022/10/04 03:44:25;;;;;;;;;;;22.50;37.50;;;;;;486844;245;1188;-75
2022/10/04 03:46:27;;;;;;;;;;;22.50;37.60;;;;;;486867;245;1093;-75
2022/10/04 03:48:28;;;;;;;;;;;22.40;37.70;;;;;;486934;244;1171;-75
2022/10/04 03:50:30;;;;;;;;;;;22.40;37.60;;;;;;486950;244;2186;-75
2022/10/04 03:52:30;;;;;;;;;;;22.50;37.50;;;;;;486801;245;1468;-75
2022/10/04 03:54:32;;;;;;;;;;;22.60;37.30;;;;;;486927;244;1067;-75
2022/10/04 03:56:33;;;;;;;;;;;22.60;37.30;;;;;;487040;245;1077;-75
2022/10/04 03:58:34;;;;;;;;;;;22.80;37.10;;;;;;487000;244;1204;-74
2022/10/04 04:00:36;;;;;;;;;;;22.80;37.10;;;;;;486962;245;1153;-75
2022/10/04 04:02:37;;;;;;;;;;;22.90;36.90;;;;;;486783;244;1115;-75
2022/10/04 04:04:39;;;;;;;;;;;22.90;36.80;;;;;;486773;244;1397;-75
2022/10/04 04:06:40;;;;;;;;;;;23.00;36.80;;;;;;486882;245;1149;-75
2022/10/04 04:08:42;;;;;;;;;;;23.00;36.70;;;;;;487058;244;1172;-75
2022/10/04 04:10:43;;;;;;;;;;;23.00;36.60;;;;;;486864;245;2159;-75
2022/10/04 04:12:46;;;;;;;;;;;23.00;36.50;;;;;;487052;244;1383;-75
2022/10/04 04:14:45;;;;;;;;;;;23.00;36.50;;;;;;486737;245;1407;-75
2022/10/04 04:16:47;;;;;;;;;;;23.10;36.40;;;;;;486858;244;1149;-75
2022/10/04 04:18:48;;;;;;;;;;;23.10;36.50;;;;;;486836;245;1307;-75
2022/10/04 04:20:50;;;;;;;;;;;23.10;36.50;;;;;;486856;245;1168;-75
2022/10/04 04:22:51;;;;;;;;;;;23.10;36.50;;;;;;486971;244;1059;-75
2022/10/04 04:24:52;;;;;;;;;;;23.20;36.30;;;;;;486896;245;1099;-75
2022/10/04 04:26:54;;;;;;;;;;;23.10;36.30;;;;;;486920;244;1138;-75
2022/10/04 04:28:56;;;;;;;;;;;23.10;36.30;;;;;;486856;245;1421;-75
2022/10/04 04:30:57;;;;;;;;;;;23.20;36.30;;;;;;486787;244;2198;-75
2022/10/04 04:32:58;;;;;;;;;;;23.20;36.20;;;;;;486750;245;1176;-75
2022/10/04 04:35:05;;;;;;;;;;;23.20;36.20;;;;;;486854;244;1107;-75
2022/10/04 04:37:01;;;;;;;;;;;23.30;36.10;;;;;;486640;245;1486;-75
2022/10/04 04:41:22;;;;;;;;;;;23.30;36.00;;;;;;486922;245;1004;-75
2022/10/04 04:43:23;;;;;;;;;;;23.40;36.00;;;;;;486995;245;1465;-75
2022/10/04 04:45:25;;;;;;;;;;;23.40;35.80;;;;;;486825;245;1113;-75
2022/10/04 04:47:26;;;;;;;;;;;23.40;35.80;;;;;;486887;245;1110;-75
2022/10/04 04:49:28;;;;;;;;;;;23.30;35.80;;;;;;486961;244;1138;-75
2022/10/04 04:51:29;;;;;;;;;;;23.30;35.90;;;;;;486933;244;2177;-75
2022/10/04 04:53:30;;;;;;;;;;;23.20;35.90;;;;;;486907;245;1173;-75
2022/10/04 04:55:31;;;;;;;;;;;23.40;35.80;;;;;;486901;245;1161;-75
2022/10/04 04:57:33;;;;;;;;;;;23.30;35.80;;;;;;486729;245;1137;-75
2022/10/04 04:59:35;;;;;;;;;;;23.30;35.90;;;;;;486876;244;1161;-75
2022/10/04 05:01:35;;;;;;;;;;;23.30;35.80;;;;;;486873;245;1455;-75
2022/10/04 05:03:37;;;;;;;;;;;23.30;35.80;;;;;;486791;244;1203;-75
2022/10/04 05:05:38;;;;;;;;;;;23.30;35.80;;;;;;486776;245;1145;-75
2022/10/04 05:07:41;;;;;;;;;;;23.30;35.70;;;;;;486897;244;1104;-75
2022/10/04 05:09:41;;;;;;;;;;;23.30;35.70;;;;;;486900;245;1296;-75
2022/10/04 05:11:43;;;;;;;;;;;23.30;35.70;;;;;;486899;245;2187;-75
2022/10/04 05:13:44;;;;;;;;;;;23.30;35.70;;;;;;486947;244;1303;-75
2022/10/04 05:15:45;;;;;;;;;;;23.30;35.70;;;;;;486778;245;1187;-75
2022/10/04 05:17:47;;;;;;;;;;;23.40;35.70;;;;;;486793;244;1249;-75
2022/10/04 05:19:48;;;;;;;;;;;23.40;35.60;;;;;;486711;245;1105;-75
2022/10/04 05:21:49;;;;;;;;;;;23.40;35.50;;;;;;486734;245;1183;-75
2022/10/04 05:23:51;;;;;;;;;;;23.30;35.60;;;;;;486877;244;1116;-75
2022/10/04 05:25:52;;;;;;;;;;;23.30;35.60;;;;;;486900;245;1196;-75
2022/10/04 05:27:54;;;;;;;;;;;23.30;35.80;;;;;;486958;244;1040;-75
2022/10/04 05:29:55;;;;;;;;;;;23.30;35.80;;;;;;486860;245;2178;-75
2022/10/04 05:31:57;;;;;;;;;;;23.40;35.70;;;;;;486823;244;1132;-75
2022/10/04 05:33:58;;;;;;;;;;;23.30;35.70;;;;;;486613;245;1051;-75
2022/10/04 05:35:59;;;;;;;;;;;23.40;35.80;;;;;;486963;244;1141;-75
2022/10/04 05:38:01;;;;;;;;;;;23.40;35.70;;;;;;486803;245;1185;-75
2022/10/04 05:40:02;;;;;;;;;;;23.40;35.70;;;;;;486860;244;1125;-75
2022/10/04 05:42:04;;;;;;;;;;;23.40;35.70;;;;;;486850;245;1040;-75
2022/10/04 05:44:05;;;;;;;;;;;23.40;35.80;;;;;;486755;244;1405;-75
2022/10/04 05:46:06;;;;;;;;;;;23.40;36.00;;;;;;486881;244;1059;-75
2022/10/04 05:48:09;;;;;;;;;;;23.40;35.90;;;;;;486760;244;1095;-75
2022/10/04 05:50:09;;;;;;;;;;;23.40;35.90;;;;;;486901;245;2170;-75
2022/10/04 05:52:11;;;;;;;;;;;23.40;36.00;;;;;;486683;245;1087;-75
2022/10/04 05:54:12;;;;;;;;;;;23.30;36.00;;;;;;487017;244;1298;-75
2022/10/04 05:56:13;;;;;;;;;;;23.30;36.10;;;;;;486814;245;1067;-75
2022/10/04 05:58:17;;;;;;;;;;;23.20;36.20;;;;;;486674;245;1122;-75
2022/10/04 06:00:17;;;;;;;;;;;23.20;36.50;;;;;;486670;245;1458;-75
2022/10/04 06:02:18;;;;;;;;;;;23.10;36.80;;;;;;486611;245;1154;-75
2022/10/04 06:04:19;;;;;;;;;;;23.10;37.00;;;;;;486707;245;1066;-75
2022/10/04 06:06:21;;;;;;;;;;;23.10;37.10;;;;;;486688;245;1136;-75
2022/10/04 06:08:22;;;;;;;;;;;23.00;37.20;;;;;;486529;245;1126;-75
2022/10/04 06:10:24;;;;;;;;;;;23.00;37.50;;;;;;486686;245;2274;-75
2022/10/04 06:12:29;;;;;;;;;;;23.00;37.50;;;;;;486550;245;1406;-75
2022/10/04 06:14:29;;;;;;;;;;;23.00;37.50;;;;;;486608;245;1264;-75
2022/10/04 06:16:27;;;;;;;;;;;23.00;37.50;;;;;;486495;245;1406;-75
2022/10/04 06:18:29;;;;;;;;;;;23.00;37.50;;;;;;486685;245;1141;-75
2022/10/04 06:20:30;;;;;;;;;;;23.00;37.50;;;;;;486681;244;1345;-75
2022/10/04 06:22:32;;;;;;;;;;;23.00;37.50;;;;;;486585;245;1347;-75
2022/10/04 06:24:33;;;;;;;;;;;23.00;37.40;;;;;;486266;245;1140;-75
2022/10/04 06:26:34;;;;;;;;;;;23.00;37.50;;;;;;486683;245;1322;-75
2022/10/04 06:28:35;;;;;;;;;;;23.00;37.50;;;;;;486740;245;1197;-75
2022/10/04 06:30:37;;;;;;;;;;;23.00;37.50;;;;;;486633;245;2183;-75
2022/10/04 06:32:38;;;;;;;;;;;23.00;37.70;;;;;;486587;244;1352;-74
2022/10/04 06:34:39;;;;;;;;;;;23.00;37.70;;;;;;486503;244;1108;-75
2022/10/04 06:36:41;;;;;;;;;;;23.00;37.70;;;;;;486690;245;1227;-75
2022/10/04 06:38:43;;;;;;;;;;;23.00;37.50;;;;;;486730;244;1138;-75
2022/10/04 06:40:43;;;;;;;;;;;23.00;37.70;;;;;;486643;245;1446;-75
2022/10/04 06:42:45;;;;;;;;;;;23.00;37.80;;;;;;486498;244;1094;-75
2022/10/04 06:44:46;;;;;;;;;;;23.00;37.80;;;;;;486668;244;1099;-75
2022/10/04 06:46:47;;;;;;;;;;;23.00;37.90;;;;;;486635;244;1108;-75
2022/10/04 06:48:49;;;;;;;;;;;23.10;38.00;;;;;;486662;245;1187;-75
2022/10/04 06:50:50;;;;;;;;;;;23.00;38.00;;;;;;486652;245;2206;-75
2022/10/04 06:52:52;;;;;;;;;;;23.10;38.10;;;;;;486603;244;1170;-75
2022/10/04 06:54:53;;;;;;;;;;;23.00;38.10;;;;;;486478;245;1431;-75
2022/10/04 06:56:54;;;;;;;;;;;23.10;38.20;;;;;;486555;245;1223;-75
2022/10/04 06:58:55;;;;;;;;;;;23.00;38.20;;;;;;486648;245;1121;-74
2022/10/04 07:00:57;;;;;;;;;;;23.10;38.30;;;;;;486609;244;1153;-74
2022/10/04 07:02:58;;;;;;;;;;;23.00;38.20;;;;;;486368;244;1172;-75
2022/10/04 07:04:59;;;;;;;;;;;23.00;38.50;;;;;;486624;245;1165;-75
2022/10/04 07:07:22;;;;;;;;;;;23.00;38.50;;;;;;486497;244;1135;-75
2022/10/04 07:09:04;;;;;;;;;;;23.00;38.50;;;;;;485049;245;1171;-75
2022/10/04 07:11:04;;;;;;;;;;;23.00;38.60;;;;;;486646;245;2190;-75
2022/10/04 07:13:05;;;;;;;;;;;23.00;38.60;;;;;;486591;244;1112;-75
2022/10/04 07:15:06;;;;;;;;;;;23.00;38.70;;;;;;486469;245;1093;-74
2022/10/04 07:17:08;;;;;;;;;;;23.00;38.70;;;;;;486406;245;1231;-74
2022/10/04 07:19:09;;;;;;;;;;;23.00;38.90;;;;;;486684;244;1183;-74
2022/10/04 07:21:11;;;;;;;;;;;22.90;39.00;;;;;;486437;245;1288;-75
2022/10/04 07:23:13;;;;;;;;;;;23.00;39.10;;;;;;486398;245;1296;-75
2022/10/04 07:25:14;;;;;;;;;;;23.00;39.10;;;;;;486665;245;1391;-75
2022/10/04 07:27:15;;;;;;;;;;;22.90;39.30;;;;;;486705;244;1112;-75
2022/10/04 07:29:20;;;;;;;;;;;23.00;39.40;;;;;;486456;245;1088;-75
2022/10/04 07:31:23;;;;;;;;;;;23.00;39.30;;;;;;486675;244;2209;-75
2022/10/04 07:33:23;;;;;;;;;;;23.00;39.30;;;;;;486407;245;1469;-75
2022/10/04 07:35:25;;;;;;;;;;;23.10;39.40;;;;;;486538;245;1172;-75
2022/10/04 07:37:26;;;;;;;;;;;23.00;39.30;;;;;;486636;244;1123;-75
2022/10/04 07:39:27;;;;;;;;;;;23.00;39.60;;;;;;486519;244;1113;-75
2022/10/04 07:41:29;;;;;;;;;;;23.00;39.70;;;;;;486211;245;1247;-74
2022/10/04 07:43:30;;;;;;;;;;;23.00;40.00;;;;;;486440;245;1472;-75
2022/10/04 07:45:31;;;;;;;;;;;23.00;40.20;;;;;;486258;245;1119;-74
2022/10/04 07:47:33;;;;;;;;;;;23.00;40.10;;;;;;486455;245;1111;-75
2022/10/04 07:49:34;;;;;;;;;;;23.10;40.10;;;;;;486313;244;1105;-75
2022/10/04 07:51:35;;;;;;;;;;;23.10;40.10;;;;;;486292;245;2154;-75
2022/10/04 07:53:36;;;;;;;;;;;23.10;40.10;;;;;;486361;244;1441;-74
2022/10/04 07:55:38;;;;;;;;;;;23.20;40.10;;;;;;486431;245;1367;-75
2022/10/04 07:57:39;;;;;;;;;;;23.10;40.20;;;;;;486263;245;1149;-75
2022/10/04 07:59:40;;;;;;;;;;;23.10;40.30;;;;;;486390;245;1169;-75
2022/10/04 08:01:42;;;;;;;;;;;23.10;40.40;;;;;;486275;245;1205;-75
2022/10/04 08:03:43;;;;;;;;;;;23.10;40.40;;;;;;486443;245;1180;-75
2022/10/04 08:05:44;;;;;;;;;;;23.10;40.60;;;;;;486369;245;1146;-75
2022/10/04 08:07:46;;;;;;;;;;;23.10;40.60;;;;;;486237;244;1206;-74
2022/10/04 08:09:47;;;;;;;;;;;23.10;40.60;;;;;;486551;245;1249;-75
2022/10/04 08:11:49;;;;;;;;;;;23.10;40.70;;;;;;486437;245;2191;-75
2022/10/04 08:13:50;;;;;;;;;;;23.10;40.80;;;;;;486523;244;1155;-75
2022/10/04 08:15:51;;;;;;;;;;;23.10;40.90;;;;;;486619;245;1250;-75
2022/10/04 08:17:53;;;;;;;;;;;23.10;40.90;;;;;;486320;245;1163;-75
2022/10/04 08:19:54;;;;;;;;;;;23.10;40.90;;;;;;486572;245;1131;-75
2022/10/04 08:21:55;;;;;;;;;;;23.20;41.00;;;;;;486502;245;1225;-75
2022/10/04 08:23:57;;;;;;;;;;;23.10;41.10;;;;;;486532;245;1138;-75
2022/10/04 08:25:58;;;;;;;;;;;23.10;41.20;;;;;;486505;245;1109;-75
2022/10/04 08:30:19;;;;;;;;;;;23.00;41.30;;;;;;486471;245;1113;-75
2022/10/04 08:32:22;;;;;;;;;;;23.10;41.60;;;;;;486291;245;2163;-75
2022/10/04 08:34:21;;;;;;;;;;;23.00;41.60;;;;;;486440;245;1328;-75
2022/10/04 08:36:23;;;;;;;;;;;23.00;41.90;;;;;;486265;245;1083;-75
2022/10/04 08:38:24;;;;;;;;;;;23.10;42.00;;;;;;486206;244;1243;-75
2022/10/04 08:40:25;;;;;;;;;;;23.00;42.00;;;;;;485840;245;1119;-75
2022/10/04 08:42:27;;;;;;;;;;;23.00;42.10;;;;;;486226;244;1217;-75
2022/10/04 08:44:28;;;;;;;;;;;23.00;42.20;;;;;;486345;245;1176;-75
2022/10/04 08:46:29;;;;;;;;;;;22.90;42.20;;;;;;486268;245;1191;-75
2022/10/04 08:48:31;;;;;;;;;;;22.90;42.30;;;;;;486225;245;1232;-75
2022/10/04 08:50:32;;;;;;;;;;;23.00;42.40;;;;;;486464;245;1408;-75
2022/10/04 08:52:35;;;;;;;;;;;23.00;42.20;;;;;;486491;245;2178;-75
2022/10/04 08:54:35;;;;;;;;;;;23.10;42.10;;;;;;486435;245;1308;-75
2022/10/04 08:56:36;;;;;;;;;;;23.10;42.10;;;;;;486356;245;1302;-75
2022/10/04 08:58:37;;;;;;;;;;;23.20;42.20;;;;;;486245;245;1140;-75
2022/10/04 09:00:39;;;;;;;;;;;23.20;42.10;;;;;;486216;245;1138;-75
2022/10/04 09:02:40;;;;;;;;;;;23.10;42.30;;;;;;486181;245;1162;-75
2022/10/04 09:04:42;;;;;;;;;;;23.20;42.30;;;;;;486504;245;1196;-75
2022/10/04 09:06:43;;;;;;;;;;;23.20;42.20;;;;;;486118;245;1071;-75
2022/10/04 09:08:44;;;;;;;;;;;23.20;42.30;;;;;;486391;244;1154;-75
2022/10/04 09:10:46;;;;;;;;;;;23.20;42.30;;;;;;486304;245;1010;-75
2022/10/04 09:12:49;;;;;;;;;;;23.30;42.30;;;;;;486447;244;2163;-75
2022/10/04 09:14:48;;;;;;;;;;;23.20;42.30;;;;;;486143;245;1395;-75
2022/10/04 09:16:50;;;;;;;;;;;23.20;42.40;;;;;;486313;244;1128;-75
2022/10/04 09:18:51;;;;;;;;;;;23.20;42.60;;;;;;486336;245;1051;-75
2022/10/04 09:20:52;;;;;;;;;;;23.20;42.60;;;;;;486526;245;1180;-75
2022/10/04 09:22:56;;;;;;;;;;;23.30;42.50;;;;;;486524;244;1080;-75
2022/10/04 09:24:57;;;;;;;;;;;23.30;42.50;;;;;;486566;245;1454;-75
2022/10/04 09:26:58;;;;;;;;;;;23.20;42.50;;;;;;486560;244;1382;-75
2022/10/04 09:28:59;;;;;;;;;;;23.20;42.70;;;;;;486575;245;974;-74
2022/10/04 09:31:00;;;;;;;;;;;23.10;42.70;;;;;;486560;244;1209;-75
2022/10/04 09:33:02;;;;;;;;;;;23.10;42.70;;;;;;486245;245;2205;-75
2022/10/04 09:35:05;;;;;;;;;;;23.20;42.50;;;;;;486741;245;1227;-75
2022/10/04 09:37:04;;;;;;;;;;;23.40;42.30;;;;;;486361;245;1590;-75
2022/10/04 09:39:06;;;;;;;;;;;23.40;42.20;;;;;;486544;244;1135;-75
2022/10/04 09:41:07;;;;;;;;;;;23.50;42.00;;;;;;486562;245;1145;-75
2022/10/04 09:43:08;;;;;;;;;;;23.50;41.90;;;;;;486570;244;1105;-75
2022/10/04 09:45:10;;;;;;;;;;;23.50;41.80;;;;;;486427;245;1180;-75
2022/10/04 09:47:11;;;;;;;;;;;23.50;41.90;;;;;;486506;245;1126;-75
2022/10/04 09:49:12;;;;;;;;;;;23.40;41.90;;;;;;486511;245;1146;-75
2022/10/04 09:51:14;;;;;;;;;;;23.40;41.90;;;;;;486506;245;1256;-75
2022/10/04 09:53:15;;;;;;;;;;;23.50;42.00;;;;;;486393;245;2116;-75
2022/10/04 09:55:16;;;;;;;;;;;23.40;42.10;;;;;;486552;245;1079;-75
2022/10/04 09:57:18;;;;;;;;;;;23.30;42.20;;;;;;486559;245;1127;-75
2022/10/04 09:59:20;;;;;;;;;;;23.30;42.30;;;;;;486539;245;1141;-75
2022/10/04 10:01:21;;;;;;;;;;;23.30;42.40;;;;;;486412;245;1911;-75
2022/10/04 10:03:22;;;;;;;;;;;23.30;42.40;;;;;;486303;245;1474;-75
2022/10/04 10:05:23;;;;;;;;;;;23.40;42.40;;;;;;486434;245;1108;-75
2022/10/04 10:07:24;;;;;;;;;;;23.30;42.40;;;;;;486546;245;1067;-75
2022/10/04 10:13:38;;;;;;;;;;;23.30;42.40;;;;;;486514;245;1159;-75
2022/10/04 10:13:47;;;;;;;;;;;23.50;42.40;;;;;;486439;245;1203;-75
2022/10/04 10:15:49;;;;;;;;;;;23.50;42.30;;;;;;486496;245;1328;-75
2022/10/04 10:17:50;;;;;;;;;;;23.50;42.30;;;;;;486449;244;1145;-75
2022/10/04 10:19:52;;;;;;;;;;;23.60;42.30;;;;;;486465;245;1165;-75
2022/10/04 10:21:53;;;;;;;;;;;23.60;42.20;;;;;;486648;244;1102;-75
2022/10/04 10:23:54;;;;;;;;;;;23.60;42.20;;;;;;486429;245;1172;-75
2022/10/04 10:25:58;;;;;;;;;;;23.60;42.30;;;;;;486659;245;1154;-75
2022/10/04 10:27:57;;;;;;;;;;;23.60;42.30;;;;;;486281;245;1466;-75
2022/10/04 10:29:58;;;;;;;;;;;23.60;42.30;;;;;;486487;245;1127;-75
2022/10/04 10:32:00;;;;;;;;;;;23.60;42.30;;;;;;486276;245;2201;-75
2022/10/04 10:34:01;;;;;;;;;;;23.70;42.10;;;;;;486373;245;1052;-75
2022/10/04 10:36:02;;;;;;;;;;;23.80;42.20;;;;;;486428;244;1307;-75
2022/10/04 10:38:04;;;;;;;;;;;23.80;42.10;;;;;;486280;245;1129;-75
2022/10/04 10:40:05;;;;;;;;;;;23.80;42.10;;;;;;486361;245;1129;-75
2022/10/04 10:42:06;;;;;;;;;;;23.80;42.00;;;;;;486101;245;1340;-74
2022/10/04 10:44:08;;;;;;;;;;;23.80;41.90;;;;;;486297;244;1102;-75
2022/10/04 10:46:09;;;;;;;;;;;23.90;41.80;;;;;;486319;245;1162;-75
2022/10/04 10:48:12;;;;;;;;;;;23.90;41.90;;;;;;486298;245;1131;-75
2022/10/04 10:50:12;;;;;;;;;;;23.90;41.80;;;;;;486339;245;1470;-75
2022/10/04 10:52:13;;;;;;;;;;;23.90;41.80;;;;;;486376;245;2182;-75
2022/10/04 10:54:14;;;;;;;;;;;23.90;41.80;;;;;;486551;245;1179;-75
2022/10/04 10:56:16;;;;;;;;;;;23.80;41.70;;;;;;486210;245;1140;-75
2022/10/04 10:58:17;;;;;;;;;;;23.80;41.80;;;;;;486642;245;1103;-75
2022/10/04 11:00:18;;;;;;;;;;;23.80;41.90;;;;;;486684;244;1190;-75
2022/10/04 11:02:20;;;;;;;;;;;23.80;41.80;;;;;;486383;245;1181;-75
2022/10/04 11:04:21;;;;;;;;;;;24.00;41.80;;;;;;486304;244;1089;-75
2022/10/04 11:06:23;;;;;;;;;;;23.90;41.60;;;;;;486452;245;1384;-75
2022/10/04 11:08:28;;;;;;;;;;;24.00;41.60;;;;;;486573;244;1421;-75
2022/10/04 11:10:26;;;;;;;;;;;23.90;41.60;;;;;;486200;245;1426;-75
2022/10/04 11:12:27;;;;;;;;;;;23.90;41.70;;;;;;486351;245;2175;-74
2022/10/04 11:14:31;;;;;;;;;;;23.90;41.70;;;;;;486508;244;1098;-75
2022/10/04 11:16:33;;;;;;;;;;;23.90;41.70;;;;;;486268;245;1408;-75
2022/10/04 11:18:31;;;;;;;;;;;23.90;41.60;;;;;;486350;245;1399;-75
2022/10/04 11:20:32;;;;;;;;;;;23.90;41.60;;;;;;486640;244;1172;-75
2022/10/04 11:22:34;;;;;;;;;;;24.00;41.50;;;;;;486537;245;1170;-75
2022/10/04 11:24:35;;;;;;;;;;;24.00;41.50;;;;;;486551;245;1210;-75
2022/10/04 11:26:36;;;;;;;;;;;24.00;41.50;;;;;;486419;245;1104;-74
2022/10/04 11:28:38;;;;;;;;;;;24.00;41.50;;;;;;486544;245;1165;-75
2022/10/04 11:30:39;;;;;;;;;;;23.90;41.50;;;;;;486484;244;1137;-75
2022/10/04 11:32:40;;;;;;;;;;;24.00;41.50;;;;;;486380;245;2193;-75
2022/10/04 11:34:42;;;;;;;;;;;23.90;41.50;;;;;;486505;245;1297;-75
2022/10/04 11:36:43;;;;;;;;;;;23.90;41.50;;;;;;486462;245;1100;-75
2022/10/04 11:38:47;;;;;;;;;;;23.90;41.50;;;;;;486539;245;1141;-75
2022/10/04 11:40:46;;;;;;;;;;;24.00;41.50;;;;;;486366;245;1464;-75
2022/10/04 11:42:48;;;;;;;;;;;23.90;41.60;;;;;;486525;244;1050;-75
2022/10/04 11:44:50;;;;;;;;;;;24.00;41.60;;;;;;486317;245;996;-75
2022/10/04 11:46:50;;;;;;;;;;;23.90;41.70;;;;;;486398;245;1270;-75
2022/10/04 11:48:52;;;;;;;;;;;23.90;41.70;;;;;;486397;244;1008;-75
2022/10/04 11:50:53;;;;;;;;;;;23.80;41.70;;;;;;486475;245;1043;-75
2022/10/04 11:52:55;;;;;;;;;;;23.90;41.80;;;;;;486440;245;2155;-75
2022/10/04 11:54:56;;;;;;;;;;;23.80;41.90;;;;;;486397;244;1086;-75
2022/10/04 11:56:57;;;;;;;;;;;23.50;42.30;;;;;;486414;245;1154;-75
2022/10/04 11:58:59;;;;;;;;;;;23.60;42.40;;;;;;486496;244;1095;-75
2022/10/04 12:01:00;;;;;;;;;;;23.60;42.30;;;;;;486457;245;1190;-75
2022/10/04 12:03:04;;;;;;;;;;;23.70;42.10;;;;;;486274;244;1149;-75
2022/10/04 12:05:03;;;;;;;;;;;23.70;42.10;;;;;;486405;245;1324;-75
2022/10/04 12:07:05;;;;;;;;;;;23.70;42.20;;;;;;486280;245;1208;-75